sensor_id;sensor_type;location;lat;lon;timestamp;pressure;altitude;pressure_sealevel;temperature;humidity
41706;BME280;27385;51.096;17.190;2023-02-28T00:01:38;101704.80;;;-0.40;79.47
41706;BME280;27385;51.096;17.190;2023-02-28T00:04:07;101702.30;;;-0.38;79.40
41706;BME280;27385;51.096;17.190;2023-02-28T00:06:37;101700.50;;;-0.38;79.42
41706;BME280;27385;51.096;17.190;2023-02-28T00:09:06;101697.30;;;-0.37;79.37
41706;BME280;27385;51.096;17.190;2023-02-28T00:11:35;101700.04;;;-0.38;79.34
41706;BME280;27385;51.096;17.190;2023-02-28T00:14:05;101698.94;;;-0.38;79.41
41706;BME280;27385;51.096;17.190;2023-02-28T00:16:35;101699.99;;;-0.36;79.56
41706;BME280;27385;51.096;17.190;2023-02-28T00:19:04;101699.53;;;-0.36;79.34
41706;BME280;27385;51.096;17.190;2023-02-28T00:21:33;101703.53;;;-0.36;79.07
41706;BME280;27385;51.096;17.190;2023-02-28T00:24:03;101702.13;;;-0.35;79.00
41706;BME280;27385;51.096;17.190;2023-02-28T00:26:33;101700.25;;;-0.35;78.89
41706;BME280;27385;51.096;17.190;2023-02-28T00:29:02;101698.92;;;-0.34;78.74
41706;BME280;27385;51.096;17.190;2023-02-28T00:31:31;101698.77;;;-0.34;78.56
41706;BME280;27385;51.096;17.190;2023-02-28T00:34:00;101699.05;;;-0.32;78.74
41706;BME280;27385;51.096;17.190;2023-02-28T00:36:29;101701.80;;;-0.31;78.91
41706;BME280;27385;51.096;17.190;2023-02-28T00:38:58;101695.36;;;-0.31;78.77
41706;BME280;27385;51.096;17.190;2023-02-28T00:41:28;101695.79;;;-0.30;79.21
41706;BME280;27385;51.096;17.190;2023-02-28T00:43:57;101692.96;;;-0.29;79.02
41706;BME280;27385;51.096;17.190;2023-02-28T00:46:26;101687.39;;;-0.28;79.05
41706;BME280;27385;51.096;17.190;2023-02-28T00:48:56;101684.67;;;-0.28;79.03
41706;BME280;27385;51.096;17.190;2023-02-28T00:51:25;101688.70;;;-0.26;78.99
41706;BME280;27385;51.096;17.190;2023-02-28T00:53:54;101687.86;;;-0.24;79.01
41706;BME280;27385;51.096;17.190;2023-02-28T00:56:23;101684.55;;;-0.25;79.04
41706;BME280;27385;51.096;17.190;2023-02-28T00:58:52;101686.73;;;-0.27;78.94
41706;BME280;27385;51.096;17.190;2023-02-28T01:01:21;101685.84;;;-0.28;78.98
41706;BME280;27385;51.096;17.190;2023-02-28T01:03:51;101691.01;;;-0.29;78.89
41706;BME280;27385;51.096;17.190;2023-02-28T01:06:20;101692.59;;;-0.28;78.87
41706;BME280;27385;51.096;17.190;2023-02-28T01:08:49;101693.06;;;-0.28;79.07
41706;BME280;27385;51.096;17.190;2023-02-28T01:11:18;101689.15;;;-0.27;79.18
41706;BME280;27385;51.096;17.190;2023-02-28T01:13:48;101688.13;;;-0.28;79.22
41706;BME280;27385;51.096;17.190;2023-02-28T01:16:17;101686.02;;;-0.27;79.31
41706;BME280;27385;51.096;17.190;2023-02-28T01:18:46;101683.83;;;-0.27;79.26
41706;BME280;27385;51.096;17.190;2023-02-28T01:21:16;101683.02;;;-0.28;79.19
41706;BME280;27385;51.096;17.190;2023-02-28T01:23:46;101681.68;;;-0.29;79.32
41706;BME280;27385;51.096;17.190;2023-02-28T01:26:15;101683.00;;;-0.30;79.39
41706;BME280;27385;51.096;17.190;2023-02-28T01:28:45;101682.17;;;-0.32;79.05
41706;BME280;27385;51.096;17.190;2023-02-28T01:31:14;101680.32;;;-0.36;78.98
41706;BME280;27385;51.096;17.190;2023-02-28T01:33:44;101683.27;;;-0.38;79.28
41706;BME280;27385;51.096;17.190;2023-02-28T01:36:14;101682.05;;;-0.39;79.51
41706;BME280;27385;51.096;17.190;2023-02-28T01:38:43;101681.24;;;-0.42;79.57
41706;BME280;27385;51.096;17.190;2023-02-28T01:41:15;101677.00;;;-0.43;79.63
41706;BME280;27385;51.096;17.190;2023-02-28T01:43:58;101678.25;;;-0.43;79.70
41706;BME280;27385;51.096;17.190;2023-02-28T01:46:31;101674.02;;;-0.44;79.80
41706;BME280;27385;51.096;17.190;2023-02-28T01:49:06;101675.41;;;-0.44;79.64
41706;BME280;27385;51.096;17.190;2023-02-28T01:51:39;101679.67;;;-0.47;79.63
41706;BME280;27385;51.096;17.190;2023-02-28T01:54:14;101681.86;;;-0.48;79.59
41706;BME280;27385;51.096;17.190;2023-02-28T01:56:46;101678.98;;;-0.48;79.49
41706;BME280;27385;51.096;17.190;2023-02-28T01:59:19;101680.86;;;-0.47;79.69
41706;BME280;27385;51.096;17.190;2023-02-28T02:01:50;101678.36;;;-0.47;79.84
41706;BME280;27385;51.096;17.190;2023-02-28T02:04:19;101675.13;;;-0.48;79.61
41706;BME280;27385;51.096;17.190;2023-02-28T02:06:49;101681.48;;;-0.48;79.91
41706;BME280;27385;51.096;17.190;2023-02-28T02:09:18;101684.63;;;-0.48;79.82
41706;BME280;27385;51.096;17.190;2023-02-28T02:11:48;101684.09;;;-0.46;79.67
41706;BME280;27385;51.096;17.190;2023-02-28T02:14:25;101682.85;;;-0.45;79.77
41706;BME280;27385;51.096;17.190;2023-02-28T02:17:01;101680.23;;;-0.42;79.89
41706;BME280;27385;51.096;17.190;2023-02-28T02:19:40;101680.11;;;-0.40;80.02
41706;BME280;27385;51.096;17.190;2023-02-28T02:22:23;101675.17;;;-0.40;79.97
41706;BME280;27385;51.096;17.190;2023-02-28T02:25:04;101675.31;;;-0.40;79.74
41706;BME280;27385;51.096;17.190;2023-02-28T02:27:51;101677.44;;;-0.40;79.94
41706;BME280;27385;51.096;17.190;2023-02-28T02:36:08;101678.77;;;-0.45;80.07
41706;BME280;27385;51.096;17.190;2023-02-28T02:38:42;101675.28;;;-0.48;80.08
41706;BME280;27385;51.096;17.190;2023-02-28T02:41:16;101675.98;;;-0.49;80.36
41706;BME280;27385;51.096;17.190;2023-02-28T02:43:49;101672.46;;;-0.48;80.28
41706;BME280;27385;51.096;17.190;2023-02-28T02:46:21;101669.41;;;-0.48;80.22
41706;BME280;27385;51.096;17.190;2023-02-28T02:48:52;101670.78;;;-0.51;80.11
41706;BME280;27385;51.096;17.190;2023-02-28T02:51:23;101668.05;;;-0.54;80.12
41706;BME280;27385;51.096;17.190;2023-02-28T02:53:54;101673.95;;;-0.54;80.06
41706;BME280;27385;51.096;17.190;2023-02-28T02:56:25;101671.66;;;-0.54;80.16
41706;BME280;27385;51.096;17.190;2023-02-28T02:58:57;101666.69;;;-0.57;80.23
41706;BME280;27385;51.096;17.190;2023-02-28T03:01:29;101668.54;;;-0.58;80.36
41706;BME280;27385;51.096;17.190;2023-02-28T03:04:00;101670.36;;;-0.57;80.62
41706;BME280;27385;51.096;17.190;2023-02-28T03:06:30;101673.52;;;-0.56;80.60
41706;BME280;27385;51.096;17.190;2023-02-28T03:09:00;101670.67;;;-0.56;80.68
41706;BME280;27385;51.096;17.190;2023-02-28T03:11:30;101667.79;;;-0.56;80.63
41706;BME280;27385;51.096;17.190;2023-02-28T03:14:03;101673.91;;;-0.56;80.52
41706;BME280;27385;51.096;17.190;2023-02-28T03:16:38;101672.57;;;-0.56;80.44
41706;BME280;27385;51.096;17.190;2023-02-28T03:19:20;101677.52;;;-0.56;80.58
41706;BME280;27385;51.096;17.190;2023-02-28T03:21:55;101677.80;;;-0.58;80.39
41706;BME280;27385;51.096;17.190;2023-02-28T03:24:28;101677.52;;;-0.60;80.66
41706;BME280;27385;51.096;17.190;2023-02-28T03:27:03;101679.73;;;-0.60;80.60
41706;BME280;27385;51.096;17.190;2023-02-28T03:29:35;101675.91;;;-0.58;80.83
41706;BME280;27385;51.096;17.190;2023-02-28T03:32:05;101681.14;;;-0.59;80.68
41706;BME280;27385;51.096;17.190;2023-02-28T03:34:42;101678.67;;;-0.61;80.58
41706;BME280;27385;51.096;17.190;2023-02-28T03:37:17;101682.24;;;-0.64;80.59
41706;BME280;27385;51.096;17.190;2023-02-28T03:39:49;101686.83;;;-0.67;80.66
41706;BME280;27385;51.096;17.190;2023-02-28T03:42:21;101685.84;;;-0.70;80.62
41706;BME280;27385;51.096;17.190;2023-02-28T03:44:52;101689.77;;;-0.69;80.86
41706;BME280;27385;51.096;17.190;2023-02-28T03:47:23;101694.31;;;-0.69;80.86
41706;BME280;27385;51.096;17.190;2023-02-28T03:49:54;101696.83;;;-0.68;80.95
41706;BME280;27385;51.096;17.190;2023-02-28T03:52:27;101694.95;;;-0.69;81.02
41706;BME280;27385;51.096;17.190;2023-02-28T03:54:59;101690.76;;;-0.71;80.84
41706;BME280;27385;51.096;17.190;2023-02-28T03:57:34;101691.27;;;-0.73;80.79
41706;BME280;27385;51.096;17.190;2023-02-28T04:00:08;101691.67;;;-0.72;81.06
41706;BME280;27385;51.096;17.190;2023-02-28T04:02:41;101695.56;;;-0.74;81.08
41706;BME280;27385;51.096;17.190;2023-02-28T04:05:10;101697.59;;;-0.74;81.39
41706;BME280;27385;51.096;17.190;2023-02-28T04:07:39;101697.48;;;-0.76;81.31
41706;BME280;27385;51.096;17.190;2023-02-28T04:10:10;101700.52;;;-0.77;81.32
41706;BME280;27385;51.096;17.190;2023-02-28T04:12:40;101700.81;;;-0.78;81.41
41706;BME280;27385;51.096;17.190;2023-02-28T04:15:09;101699.80;;;-0.78;81.35
41706;BME280;27385;51.096;17.190;2023-02-28T04:17:39;101706.30;;;-0.78;81.36
41706;BME280;27385;51.096;17.190;2023-02-28T04:20:09;101707.81;;;-0.81;81.24
41706;BME280;27385;51.096;17.190;2023-02-28T04:22:39;101707.83;;;-0.86;80.95
41706;BME280;27385;51.096;17.190;2023-02-28T04:25:08;101709.12;;;-0.88;81.04
41706;BME280;27385;51.096;17.190;2023-02-28T04:27:38;101705.73;;;-0.89;81.35
41706;BME280;27385;51.096;17.190;2023-02-28T04:30:08;101709.58;;;-0.89;81.40
41706;BME280;27385;51.096;17.190;2023-02-28T04:32:38;101711.92;;;-0.89;81.56
41706;BME280;27385;51.096;17.190;2023-02-28T04:35:08;101717.65;;;-0.89;81.58
41706;BME280;27385;51.096;17.190;2023-02-28T04:37:37;101715.23;;;-0.88;81.75
41706;BME280;27385;51.096;17.190;2023-02-28T04:40:08;101719.54;;;-0.88;81.65
41706;BME280;27385;51.096;17.190;2023-02-28T04:42:37;101711.93;;;-0.89;81.63
41706;BME280;27385;51.096;17.190;2023-02-28T04:45:08;101715.79;;;-0.88;81.62
41706;BME280;27385;51.096;17.190;2023-02-28T04:47:38;101712.42;;;-0.88;81.71
41706;BME280;27385;51.096;17.190;2023-02-28T04:50:08;101714.64;;;-0.86;81.83
41706;BME280;27385;51.096;17.190;2023-02-28T04:52:38;101715.23;;;-0.83;81.89
41706;BME280;27385;51.096;17.190;2023-02-28T04:55:08;101716.48;;;-0.83;81.75
41706;BME280;27385;51.096;17.190;2023-02-28T04:57:37;101716.20;;;-0.87;81.72
41706;BME280;27385;51.096;17.190;2023-02-28T05:00:07;101716.34;;;-0.88;81.57
41706;BME280;27385;51.096;17.190;2023-02-28T05:02:39;101721.41;;;-0.89;81.33
41706;BME280;27385;51.096;17.190;2023-02-28T05:05:08;101723.38;;;-0.89;81.06
41706;BME280;27385;51.096;17.190;2023-02-28T05:07:37;101721.69;;;-0.87;81.23
41706;BME280;27385;51.096;17.190;2023-02-28T05:10:07;101720.23;;;-0.84;81.26
41706;BME280;27385;51.096;17.190;2023-02-28T05:12:37;101720.63;;;-0.84;81.24
41706;BME280;27385;51.096;17.190;2023-02-28T05:15:07;101722.02;;;-0.86;81.15
41706;BME280;27385;51.096;17.190;2023-02-28T05:17:37;101723.95;;;-0.87;81.38
41706;BME280;27385;51.096;17.190;2023-02-28T05:20:08;101722.61;;;-0.88;81.54
41706;BME280;27385;51.096;17.190;2023-02-28T05:22:38;101722.83;;;-0.88;81.47
41706;BME280;27385;51.096;17.190;2023-02-28T05:25:08;101725.87;;;-0.89;81.46
41706;BME280;27385;51.096;17.190;2023-02-28T05:27:39;101726.72;;;-0.90;81.41
41706;BME280;27385;51.096;17.190;2023-02-28T05:30:10;101728.13;;;-0.90;81.70
41706;BME280;27385;51.096;17.190;2023-02-28T05:32:39;101724.88;;;-0.88;81.76
41706;BME280;27385;51.096;17.190;2023-02-28T05:35:11;101729.45;;;-0.86;81.75
41706;BME280;27385;51.096;17.190;2023-02-28T05:37:40;101735.25;;;-0.85;81.91
41706;BME280;27385;51.096;17.190;2023-02-28T05:40:10;101737.17;;;-0.83;82.04
41706;BME280;27385;51.096;17.190;2023-02-28T05:42:39;101742.88;;;-0.84;81.85
41706;BME280;27385;51.096;17.190;2023-02-28T05:45:09;101744.96;;;-0.85;81.93
41706;BME280;27385;51.096;17.190;2023-02-28T05:47:38;101750.10;;;-0.83;82.10
41706;BME280;27385;51.096;17.190;2023-02-28T05:50:09;101751.18;;;-0.84;82.11
41706;BME280;27385;51.096;17.190;2023-02-28T05:52:38;101755.31;;;-0.85;82.15
41706;BME280;27385;51.096;17.190;2023-02-28T05:55:08;101759.81;;;-0.82;82.30
41706;BME280;27385;51.096;17.190;2023-02-28T05:57:37;101756.99;;;-0.82;82.34
41706;BME280;27385;51.096;17.190;2023-02-28T06:00:08;101762.70;;;-0.83;82.31
41706;BME280;27385;51.096;17.190;2023-02-28T06:02:38;101761.30;;;-0.83;82.35
41706;BME280;27385;51.096;17.190;2023-02-28T06:05:09;101763.82;;;-0.83;82.38
41706;BME280;27385;51.096;17.190;2023-02-28T06:07:42;101766.94;;;-0.83;82.21
41706;BME280;27385;51.096;17.190;2023-02-28T06:10:12;101772.05;;;-0.82;82.16
41706;BME280;27385;51.096;17.190;2023-02-28T06:12:41;101773.55;;;-0.81;82.22
41706;BME280;27385;51.096;17.190;2023-02-28T06:15:13;101779.55;;;-0.78;82.18
41706;BME280;27385;51.096;17.190;2023-02-28T06:17:43;101782.88;;;-0.76;82.11
41706;BME280;27385;51.096;17.190;2023-02-28T06:20:12;101786.20;;;-0.75;82.13
41706;BME280;27385;51.096;17.190;2023-02-28T06:22:42;101783.09;;;-0.73;81.66
41706;BME280;27385;51.096;17.190;2023-02-28T06:25:12;101782.55;;;-0.73;81.80
41706;BME280;27385;51.096;17.190;2023-02-28T06:27:41;101787.03;;;-0.72;81.47
41706;BME280;27385;51.096;17.190;2023-02-28T06:30:11;101789.83;;;-0.73;81.16
41706;BME280;27385;51.096;17.190;2023-02-28T06:32:41;101795.05;;;-0.71;81.40
41706;BME280;27385;51.096;17.190;2023-02-28T06:35:10;101794.21;;;-0.69;81.53
41706;BME280;27385;51.096;17.190;2023-02-28T06:37:39;101792.23;;;-0.70;81.07
41706;BME280;27385;51.096;17.190;2023-02-28T06:40:09;101792.96;;;-0.73;80.66
41706;BME280;27385;51.096;17.190;2023-02-28T06:42:40;101792.20;;;-0.77;80.56
41706;BME280;27385;51.096;17.190;2023-02-28T06:45:10;101796.48;;;-0.77;80.68
41706;BME280;27385;51.096;17.190;2023-02-28T06:47:40;101800.02;;;-0.77;80.30
41706;BME280;27385;51.096;17.190;2023-02-28T06:50:11;101800.17;;;-0.77;80.02
41706;BME280;27385;51.096;17.190;2023-02-28T06:52:41;101802.14;;;-0.77;79.15
41706;BME280;27385;51.096;17.190;2023-02-28T06:55:10;101803.84;;;-0.78;79.09
41706;BME280;27385;51.096;17.190;2023-02-28T06:57:39;101806.54;;;-0.77;79.41
41706;BME280;27385;51.096;17.190;2023-02-28T07:00:10;101805.77;;;-0.76;79.48
41706;BME280;27385;51.096;17.190;2023-02-28T07:02:39;101801.70;;;-0.75;79.46
41706;BME280;27385;51.096;17.190;2023-02-28T07:05:09;101800.64;;;-0.73;79.41
41706;BME280;27385;51.096;17.190;2023-02-28T07:07:38;101802.05;;;-0.73;79.37
41706;BME280;27385;51.096;17.190;2023-02-28T07:10:11;101805.52;;;-0.72;78.99
41706;BME280;27385;51.096;17.190;2023-02-28T07:12:43;101807.36;;;-0.70;78.57
41706;BME280;27385;51.096;17.190;2023-02-28T07:15:12;101806.84;;;-0.69;78.55
41706;BME280;27385;51.096;17.190;2023-02-28T07:17:42;101809.54;;;-0.66;78.34
41706;BME280;27385;51.096;17.190;2023-02-28T07:20:12;101810.67;;;-0.64;77.94
41706;BME280;27385;51.096;17.190;2023-02-28T07:22:41;101806.13;;;-0.64;77.64
41706;BME280;27385;51.096;17.190;2023-02-28T07:25:11;101808.20;;;-0.62;77.78
41706;BME280;27385;51.096;17.190;2023-02-28T07:27:40;101806.10;;;-0.61;76.78
41706;BME280;27385;51.096;17.190;2023-02-28T07:30:10;101805.30;;;-0.58;76.64
41706;BME280;27385;51.096;17.190;2023-02-28T07:32:40;101807.41;;;-0.54;76.53
41706;BME280;27385;51.096;17.190;2023-02-28T07:35:09;101807.70;;;-0.51;76.59
41706;BME280;27385;51.096;17.190;2023-02-28T07:37:39;101808.29;;;-0.48;76.44
41706;BME280;27385;51.096;17.190;2023-02-28T07:40:10;101817.23;;;-0.48;76.23
41706;BME280;27385;51.096;17.190;2023-02-28T07:42:40;101822.27;;;-0.47;76.07
41706;BME280;27385;51.096;17.190;2023-02-28T07:45:10;101817.52;;;-0.45;76.56
41706;BME280;27385;51.096;17.190;2023-02-28T07:47:40;101821.70;;;-0.43;76.30
41706;BME280;27385;51.096;17.190;2023-02-28T07:50:11;101824.10;;;-0.41;76.06
41706;BME280;27385;51.096;17.190;2023-02-28T07:52:41;101824.45;;;-0.38;76.20
41706;BME280;27385;51.096;17.190;2023-02-28T07:55:10;101821.98;;;-0.36;75.71
41706;BME280;27385;51.096;17.190;2023-02-28T07:57:41;101818.23;;;-0.31;75.09
41706;BME280;27385;51.096;17.190;2023-02-28T08:00:11;101818.47;;;-0.26;75.15
41706;BME280;27385;51.096;17.190;2023-02-28T08:02:41;101816.95;;;-0.21;74.93
41706;BME280;27385;51.096;17.190;2023-02-28T08:05:10;101817.66;;;-0.17;74.52
41706;BME280;27385;51.096;17.190;2023-02-28T08:07:40;101815.83;;;-0.13;74.59
41706;BME280;27385;51.096;17.190;2023-02-28T08:10:10;101818.73;;;-0.09;74.64
41706;BME280;27385;51.096;17.190;2023-02-28T08:12:39;101819.16;;;-0.07;74.47
41706;BME280;27385;51.096;17.190;2023-02-28T08:15:09;101817.56;;;-0.03;74.29
41706;BME280;27385;51.096;17.190;2023-02-28T08:17:39;101811.52;;;0.01;73.80
41706;BME280;27385;51.096;17.190;2023-02-28T08:20:09;101816.98;;;0.04;73.65
41706;BME280;27385;51.096;17.190;2023-02-28T08:22:39;101811.42;;;0.06;73.56
41706;BME280;27385;51.096;17.190;2023-02-28T08:25:10;101811.11;;;0.10;73.35
41706;BME280;27385;51.096;17.190;2023-02-28T08:27:39;101809.81;;;0.14;74.11
41706;BME280;27385;51.096;17.190;2023-02-28T08:30:09;101809.55;;;0.16;73.88
41706;BME280;27385;51.096;17.190;2023-02-28T08:32:39;101812.02;;;0.19;73.57
41706;BME280;27385;51.096;17.190;2023-02-28T08:35:09;101814.40;;;0.21;73.57
41706;BME280;27385;51.096;17.190;2023-02-28T08:37:38;101813.71;;;0.22;73.42
41706;BME280;27385;51.096;17.190;2023-02-28T08:40:09;101813.02;;;0.24;73.42
41706;BME280;27385;51.096;17.190;2023-02-28T08:42:41;101815.31;;;0.24;72.92
41706;BME280;27385;51.096;17.190;2023-02-28T08:45:10;101814.14;;;0.25;72.61
41706;BME280;27385;51.096;17.190;2023-02-28T08:47:40;101817.70;;;0.27;72.05
41706;BME280;27385;51.096;17.190;2023-02-28T08:50:10;101811.79;;;0.31;71.74
41706;BME280;27385;51.096;17.190;2023-02-28T08:52:43;101812.11;;;0.37;72.40
41706;BME280;27385;51.096;17.190;2023-02-28T08:55:12;101814.59;;;0.41;71.27
41706;BME280;27385;51.096;17.190;2023-02-28T08:57:42;101818.86;;;0.47;70.86
41706;BME280;27385;51.096;17.190;2023-02-28T09:00:12;101819.70;;;0.52;70.50
41706;BME280;27385;51.096;17.190;2023-02-28T09:02:42;101818.98;;;0.57;70.56
41706;BME280;27385;51.096;17.190;2023-02-28T09:05:11;101819.08;;;0.59;70.08
41706;BME280;27385;51.096;17.190;2023-02-28T09:07:40;101811.98;;;0.62;70.55
41706;BME280;27385;51.096;17.190;2023-02-28T09:10:10;101811.86;;;0.66;70.01
41706;BME280;27385;51.096;17.190;2023-02-28T09:12:40;101810.95;;;0.68;70.63
41706;BME280;27385;51.096;17.190;2023-02-28T09:15:10;101812.15;;;0.71;70.75
41706;BME280;27385;51.096;17.190;2023-02-28T09:17:39;101810.94;;;0.73;71.02
41706;BME280;27385;51.096;17.190;2023-02-28T09:20:10;101803.73;;;0.76;70.77
41706;BME280;27385;51.096;17.190;2023-02-28T09:22:39;101806.06;;;0.79;70.43
41706;BME280;27385;51.096;17.190;2023-02-28T09:25:08;101803.10;;;0.81;69.90
41706;BME280;27385;51.096;17.190;2023-02-28T09:27:38;101802.73;;;0.84;69.71
41706;BME280;27385;51.096;17.190;2023-02-28T09:30:08;101806.23;;;0.88;68.94
41706;BME280;27385;51.096;17.190;2023-02-28T09:32:38;101803.94;;;0.93;69.56
41706;BME280;27385;51.096;17.190;2023-02-28T09:35:08;101800.38;;;0.98;68.98
41706;BME280;27385;51.096;17.190;2023-02-28T09:37:41;101796.98;;;1.03;70.39
41706;BME280;27385;51.096;17.190;2023-02-28T09:40:13;101798.50;;;1.06;68.31
41706;BME280;27385;51.096;17.190;2023-02-28T09:42:46;101795.50;;;1.11;69.06
41706;BME280;27385;51.096;17.190;2023-02-28T09:45:19;101794.00;;;1.20;68.94
41706;BME280;27385;51.096;17.190;2023-02-28T09:47:50;101791.71;;;1.26;68.25
41706;BME280;27385;51.096;17.190;2023-02-28T09:50:23;101784.98;;;1.29;68.29
41706;BME280;27385;51.096;17.190;2023-02-28T09:52:57;101786.19;;;1.32;67.69
41706;BME280;27385;51.096;17.190;2023-02-28T09:55:28;101790.77;;;1.34;67.04
41706;BME280;27385;51.096;17.190;2023-02-28T09:57:58;101794.23;;;1.34;66.09
41706;BME280;27385;51.096;17.190;2023-02-28T10:00:30;101797.37;;;1.32;67.72
41706;BME280;27385;51.096;17.190;2023-02-28T10:03:15;101801.77;;;1.32;68.14
41706;BME280;27385;51.096;17.190;2023-02-28T10:05:53;101802.46;;;1.32;67.11
41706;BME280;27385;51.096;17.190;2023-02-28T10:08:26;101803.19;;;1.34;67.60
41706;BME280;27385;51.096;17.190;2023-02-28T10:10:58;101806.67;;;1.36;67.39
41706;BME280;27385;51.096;17.190;2023-02-28T10:13:32;101802.84;;;1.39;66.87
41706;BME280;27385;51.096;17.190;2023-02-28T10:16:03;101805.40;;;1.44;66.66
41706;BME280;27385;51.096;17.190;2023-02-28T10:18:38;101806.10;;;1.51;66.28
41706;BME280;27385;51.096;17.190;2023-02-28T10:21:11;101813.92;;;1.55;65.75
41706;BME280;27385;51.096;17.190;2023-02-28T10:23:43;101809.67;;;1.55;66.37
41706;BME280;27385;51.096;17.190;2023-02-28T10:26:16;101807.23;;;1.54;66.64
41706;BME280;27385;51.096;17.190;2023-02-28T10:28:45;101804.71;;;1.53;66.08
41706;BME280;27385;51.096;17.190;2023-02-28T10:31:16;101801.88;;;1.52;65.99
41706;BME280;27385;51.096;17.190;2023-02-28T10:33:47;101800.06;;;1.53;66.75
41706;BME280;27385;51.096;17.190;2023-02-28T10:36:18;101798.81;;;1.53;66.79
41706;BME280;27385;51.096;17.190;2023-02-28T10:38:47;101796.08;;;1.55;66.55
41706;BME280;27385;51.096;17.190;2023-02-28T10:41:26;101796.33;;;1.57;66.29
41706;BME280;27385;51.096;17.190;2023-02-28T10:46:39;101797.80;;;1.64;64.41
41706;BME280;27385;51.096;17.190;2023-02-28T10:49:13;101794.73;;;1.65;64.16
41706;BME280;27385;51.096;17.190;2023-02-28T10:51:43;101788.85;;;1.65;64.19
41706;BME280;27385;51.096;17.190;2023-02-28T10:54:18;101786.80;;;1.67;64.77
41706;BME280;27385;51.096;17.190;2023-02-28T10:56:47;101784.25;;;1.72;64.54
41706;BME280;27385;51.096;17.190;2023-02-28T10:59:34;101787.89;;;1.74;64.31
41706;BME280;27385;51.096;17.190;2023-02-28T11:02:08;101785.29;;;1.75;64.12
41706;BME280;27385;51.096;17.190;2023-02-28T11:04:57;101777.28;;;1.76;64.17
41706;BME280;27385;51.096;17.190;2023-02-28T11:07:26;101780.86;;;1.81;64.76
41706;BME280;27385;51.096;17.190;2023-02-28T11:09:57;101776.80;;;1.84;64.10
41706;BME280;27385;51.096;17.190;2023-02-28T11:12:28;101780.92;;;1.89;64.51
41706;BME280;27385;51.096;17.190;2023-02-28T11:14:59;101780.20;;;1.89;64.55
41706;BME280;27385;51.096;17.190;2023-02-28T11:17:30;101778.80;;;1.89;64.31
41706;BME280;27385;51.096;17.190;2023-02-28T11:20:00;101778.65;;;1.91;64.56
41706;BME280;27385;51.096;17.190;2023-02-28T11:22:31;101775.21;;;1.93;64.78
41706;BME280;27385;51.096;17.190;2023-02-28T11:25:06;101774.59;;;1.95;63.98
41706;BME280;27385;51.096;17.190;2023-02-28T11:27:45;101771.45;;;1.97;63.82
41706;BME280;27385;51.096;17.190;2023-02-28T11:30:27;101766.35;;;1.99;63.26
41706;BME280;27385;51.096;17.190;2023-02-28T11:32:57;101768.29;;;2.06;63.90
41706;BME280;27385;51.096;17.190;2023-02-28T11:35:28;101769.83;;;2.13;64.16
41706;BME280;27385;51.096;17.190;2023-02-28T11:37:59;101768.66;;;2.16;62.97
41706;BME280;27385;51.096;17.190;2023-02-28T11:40:33;101764.56;;;2.15;63.19
41706;BME280;27385;51.096;17.190;2023-02-28T11:43:08;101763.55;;;2.18;62.98
41706;BME280;27385;51.096;17.190;2023-02-28T11:45:44;101771.77;;;2.22;62.77
41706;BME280;27385;51.096;17.190;2023-02-28T11:48:17;101765.79;;;2.21;63.36
41706;BME280;27385;51.096;17.190;2023-02-28T11:50:49;101762.33;;;2.23;63.19
41706;BME280;27385;51.096;17.190;2023-02-28T11:53:24;101758.26;;;2.26;62.91
41706;BME280;27385;51.096;17.190;2023-02-28T11:56:01;101754.42;;;2.33;63.37
41706;BME280;27385;51.096;17.190;2023-02-28T11:58:39;101751.98;;;2.35;63.47
41706;BME280;27385;51.096;17.190;2023-02-28T12:01:15;101753.73;;;2.39;63.40
41706;BME280;27385;51.096;17.190;2023-02-28T12:03:53;101753.11;;;2.38;63.17
41706;BME280;27385;51.096;17.190;2023-02-28T12:06:27;101747.03;;;2.38;62.79
41706;BME280;27385;51.096;17.190;2023-02-28T12:09:04;101740.74;;;2.37;62.16
41706;BME280;27385;51.096;17.190;2023-02-28T12:11:44;101739.73;;;2.41;62.40
41706;BME280;27385;51.096;17.190;2023-02-28T12:17:05;101728.43;;;2.52;62.85
41706;BME280;27385;51.096;17.190;2023-02-28T12:19:43;101724.27;;;2.57;63.57
41706;BME280;27385;51.096;17.190;2023-02-28T12:22:21;101725.88;;;2.62;63.20
41706;BME280;27385;51.096;17.190;2023-02-28T12:24:59;101724.30;;;2.67;63.37
41706;BME280;27385;51.096;17.190;2023-02-28T12:27:33;101722.83;;;2.72;62.98
41706;BME280;27385;51.096;17.190;2023-02-28T12:30:04;101718.83;;;2.77;63.22
41706;BME280;27385;51.096;17.190;2023-02-28T12:32:36;101720.25;;;2.79;63.06
41706;BME280;27385;51.096;17.190;2023-02-28T12:35:10;101716.45;;;2.76;62.95
41706;BME280;27385;51.096;17.190;2023-02-28T12:37:41;101720.23;;;2.74;63.17
41706;BME280;27385;51.096;17.190;2023-02-28T12:40:15;101717.63;;;2.72;63.36
41706;BME280;27385;51.096;17.190;2023-02-28T12:42:46;101711.31;;;2.73;62.79
41706;BME280;27385;51.096;17.190;2023-02-28T12:45:18;101707.48;;;2.76;63.23
41706;BME280;27385;51.096;17.190;2023-02-28T12:47:50;101705.42;;;2.76;63.19
41706;BME280;27385;51.096;17.190;2023-02-28T12:50:21;101702.90;;;2.75;62.55
41706;BME280;27385;51.096;17.190;2023-02-28T12:52:53;101697.00;;;2.74;62.62
41706;BME280;27385;51.096;17.190;2023-02-28T12:55:26;101693.06;;;2.76;62.72
41706;BME280;27385;51.096;17.190;2023-02-28T12:57:58;101695.58;;;2.80;62.39
41706;BME280;27385;51.096;17.190;2023-02-28T13:00:32;101699.29;;;2.80;62.42
41706;BME280;27385;51.096;17.190;2023-02-28T13:03:10;101697.88;;;2.83;62.71
41706;BME280;27385;51.096;17.190;2023-02-28T13:08:39;101698.75;;;2.86;62.40
41706;BME280;27385;51.096;17.190;2023-02-28T13:11:25;101698.35;;;2.88;62.51
41706;BME280;27385;51.096;17.190;2023-02-28T13:13:58;101697.01;;;2.88;62.57
41706;BME280;27385;51.096;17.190;2023-02-28T13:16:29;101695.84;;;2.88;62.60
41706;BME280;27385;51.096;17.190;2023-02-28T13:19:19;101694.50;;;2.85;62.08